Latest Weather Observations for Cape Wessel

IDD60801

Issued at 3:01 pm CST Friday 23 August 2019 (issued every 10 minutes, with the page automatically refreshed every 10 minutes)

About weather observations | Map of weather stations | Latest weather observations for NT | Other Formats
Station Details ID: 200786 Name: CAPE WESSEL Lat: -11.00 Lon: 136.76 Height: 18.0 m
Data from the previous 72 hours. | See also: Recent months at Cape Wessel
Date/Time
CST
Temp
°C
App
Temp
°C
Dew
Point
°C
Rel
Hum
%
Delta-T
°C
Wind Press
QNH
hPa
Press
MSL
hPa
Rain since
9am
mm
Dir  Spd
km/h
Gust
km/h
Spd
kts
Gust
kts
23/03:00pm 28.6 26.9 19.8 59 5.8 SE 28 33 15 18 1013.6 1013.5 0.0
23/02:30pm 29.4 27.7 19.7 56 6.3 SE 28 35 15 19 1013.7 1013.6 0.0
23/02:00pm 29.8 27.8 19.2 53 6.9 SE 28 35 15 19 1014.0 1013.9 0.0
23/01:30pm 29.7 26.9 19.1 53 6.9 SE 32 39 17 21 1014.3 1014.2 0.0
23/01:00pm 29.8 27.4 19.2 53 6.9 SE 30 35 16 19 1014.7 1014.6 0.0
23/12:30pm 29.7 27.8 19.4 54 6.7 SE 28 37 15 20 1015.1 1015.0 0.0
23/12:00pm 29.6 27.8 19.6 55 6.5 SE 28 37 15 20 1015.5 1015.4 0.0
23/11:30am 29.7 28.5 20.0 56 6.4 SE 26 33 14 18 1016.0 1015.9 0.0
23/11:00am 28.6 26.8 20.3 60 5.5 SE 30 37 16 20 1016.3 1016.2 0.0
23/10:30am 28.4 26.2 20.4 62 5.3 SE 32 39 17 21 1016.7 1016.6 0.0
23/10:00am 27.8 25.4 20.4 64 4.9 SSE 33 39 18 21 1016.7 1016.6 0.0
23/09:30am 27.2 25.1 20.5 67 4.4 SSE 32 41 17 22 1016.7 1016.6 0.0
23/09:00am 27.0 26.9 21.5 72 3.7 SSE 24 32 13 17 1016.7 1016.6 0.0
23/08:30am 25.8 25.1 21.0 75 3.2 SSE 26 32 14 17 1016.4 1016.3 0.0
23/08:00am 24.8 24.0 20.9 79 2.6 SSE 26 32 14 17 1016.3 1016.2 0.0
23/07:30am 23.9 23.4 20.8 83 2.0 SSE 24 32 13 17 1016.0 1015.9 0.0
23/07:00am 23.1 22.3 20.8 87 1.5 SSE 26 32 14 17 1015.8 1015.7 0.0
23/06:30am 22.7 22.1 20.4 87 1.5 SSE 24 30 13 16 1015.6 1015.5 0.0
23/06:00am 22.8 22.1 20.3 86 1.6 SSE 24 30 13 16 1015.4 1015.3 0.0
23/05:30am 23.0 22.0 20.5 86 1.6 SSE 26 33 14 18 1015.2 1015.1 0.0
23/05:00am 23.0 22.0 20.5 86 1.6 SSE 26 33 14 18 1015.0 1014.9 0.0
23/04:30am 23.2 22.2 20.5 85 1.8 SSE 26 32 14 17 1014.9 1014.8 0.0
23/04:00am 23.1 22.5 20.4 85 1.8 SSE 24 28 13 15 1015.0 1014.9 0.0
23/03:30am 23.2 23.0 20.5 85 1.8 SSE 22 28 12 15 1015.1 1015.0 0.0
23/03:00am 23.2 23.0 20.5 85 1.8 SSE 22 26 12 14 1015.4 1015.3 0.0
23/02:30am 23.4 22.8 20.5 84 1.9 SSE 24 30 13 16 1015.6 1015.5 0.0
23/02:00am 23.6 22.8 20.9 85 1.8 SSE 26 32 14 17 1015.9 1015.8 0.0
23/01:30am 23.7 22.9 20.8 84 1.9 SSE 26 30 14 16 1016.1 1016.0 0.0
23/01:00am 23.8 23.5 21.1 85 1.8 SE 24 30 13 16 1016.4 1016.3 0.0
23/12:30am 24.0 22.8 20.9 83 2.0 SE 28 35 15 19 1016.6 1016.5 0.0
23/12:00am 24.0 22.9 21.1 84 1.9 SE 28 33 15 18 1016.8 1016.7 0.0
 
Date/Time
CST
Temp
°C
App
Temp
°C
Dew
Point
°C
Rel
Hum
%
Delta-T
°C
Wind Press
QNH
hPa
Press
MSL
hPa
Rain since
9am
mm
Dir  Spd
km/h
Gust
km/h
Spd
kts
Gust
kts
22/11:30pm 24.0 23.2 20.9 83 2.0 SE 26 32 14 17 1016.9 1016.8 0.0
22/11:00pm 24.0 23.1 20.7 82 2.2 SE 26 32 14 17 1017.0 1016.9 0.0
22/10:30pm 24.2 22.8 21.1 83 2.0 SE 30 35 16 19 1016.9 1016.8 0.0
22/10:00pm 24.2 23.0 20.9 82 2.2 SE 28 35 15 19 1016.7 1016.6 0.0
22/09:30pm 24.1 23.1 21.2 84 1.9 SE 28 33 15 18 1016.4 1016.3 0.0
22/09:00pm 24.2 22.7 20.9 82 2.2 SE 30 35 16 19 1016.4 1016.3 0.0
22/08:30pm 24.3 22.4 21.0 82 2.2 SE 32 37 17 20 1016.2 1016.1 0.0
22/08:00pm 24.3 22.9 21.2 83 2.0 SE 30 37 16 20 1015.9 1015.8 0.0
22/07:30pm 24.5 23.1 21.2 82 2.2 SE 30 37 16 20 1015.4 1015.3 0.0
22/07:00pm 24.6 22.8 21.1 81 2.3 SE 32 39 17 21 1015.1 1015.0 0.0
22/06:30pm 24.7 22.8 21.0 80 2.4 SE 32 39 17 21 1014.8 1014.7 0.0
22/06:00pm 25.3 24.4 21.4 79 2.6 SE 28 35 15 19 1014.3 1014.2 0.0
22/05:30pm 25.9 25.1 20.9 74 3.3 SE 26 33 14 18 1014.1 1014.0 0.0
22/05:00pm 25.7 24.8 20.7 74 3.3 SE 26 32 14 17 1013.7 1013.6 0.0
22/04:30pm 26.0 26.4 21.0 74 3.3 SE 20 24 11 13 1013.5 1013.4 0.0
22/04:00pm 27.0 25.7 20.6 68 4.2 ESE 28 35 15 19 1013.3 1013.2 0.0
22/03:30pm 28.4 27.9 21.4 66 4.7 ESE 26 32 14 17 1013.3 1013.2 0.0
22/03:00pm 28.8 27.7 21.1 63 5.1 ESE 28 32 15 17 1013.2 1013.1 0.0
22/02:30pm 28.8 28.2 21.3 64 5.0 ESE 26 32 14 17 1013.5 1013.4 0.0
22/02:00pm 27.7 28.8 22.4 73 3.6 SE 20 24 11 13 1013.9 1013.8 0.0
22/01:30pm 28.2 28.5 22.2 70 4.0 SE 24 30 13 16 1014.0 1013.9 0.0
22/01:00pm 30.2 30.2 22.4 63 5.3 SE 26 33 14 18 1014.3 1014.2 0.0
22/12:30pm 29.2 27.9 21.4 63 5.2 SE 30 35 16 19 1014.6 1014.5 0.0
22/12:00pm 28.1 26.7 21.1 65 4.7 SE 30 37 16 20 1014.8 1014.7 0.0
22/11:30am 28.5 26.9 21.5 66 4.7 SE 32 43 17 23 1015.0 1014.9 0.0
22/11:00am 27.7 26.9 23.1 76 3.1 SE 32 41 17 22 1015.3 1015.2 0.0
22/10:30am 23.9 24.4 21.2 85 1.8 SE 20 28 11 15 1015.9 1015.8 0.0
22/10:00am 24.7 23.7 21.2 81 2.3 SE 28 35 15 19 1016.1 1016.0 0.0
22/09:30am 23.9 22.9 22.0 89 1.3 SE 30 39 16 21 1016.1 1016.0 0.0
22/09:00am 23.0 20.2 21.1 89 1.2 SE 37 44 20 24 1016.0 1015.9 0.8
22/08:30am 23.1 19.5 21.7 92 0.9 SE 43 50 23 27 1015.8 1015.7 0.8
22/08:00am 22.5 19.6 21.5 94 0.7 SE 39 48 21 26 1015.6 1015.5 0.8
22/07:30am 22.5 19.8 21.3 93 0.8 SE 37 46 20 25 1015.5 1015.4 0.8
22/07:00am 22.1 19.6 20.9 93 0.8 SE 35 48 19 26 1015.3 1015.2 0.8
22/06:30am 22.6 20.4 20.7 89 1.2 SE 33 52 18 28 1015.0 1014.9 0.0
22/06:21am 22.9 20.6 20.6 87 1.5 SE 33 52 18 28 1014.9 1014.8 0.0
22/06:00am 23.5 21.3 20.4 83 2.0 SSE 32 44 17 24 1014.5 1014.4 0.0
22/05:30am 23.9 21.8 20.6 82 2.2 SSE 32 43 17 23 1014.3 1014.2 0.0
22/05:00am 23.8 21.5 20.5 82 2.1 SSE 33 43 18 23 1014.2 1014.1 0.0
22/04:30am 23.6 21.4 20.7 84 1.9 SSE 33 41 18 22 1014.1 1014.0 0.0
22/04:00am 23.6 20.9 20.5 83 2.0 SSE 35 43 19 23 1014.1 1014.0 0.0
22/03:30am 23.6 21.3 20.5 83 2.0 SSE 33 43 18 23 1014.1 1014.0 0.0
22/03:00am 23.7 21.4 20.6 83 2.0 SSE 33 43 18 23 1014.2 1014.1 0.0
22/02:30am 23.8 21.1 20.5 82 2.1 SSE 35 44 19 24 1014.4 1014.3 0.0
22/02:00am 24.1 21.1 20.6 81 2.3 SSE 37 46 20 25 1014.8 1014.7 0.0
22/01:30am 24.1 21.5 20.6 81 2.3 SSE 35 46 19 25 1015.1 1015.0 0.0
22/01:00am 24.1 21.0 20.4 80 2.4 SSE 37 46 20 25 1015.2 1015.1 0.0
22/12:30am 23.9 21.7 20.4 81 2.3 SSE 32 43 17 23 1015.4 1015.3 0.0
22/12:00am 24.0 21.3 20.5 81 2.3 SSE 35 43 19 23 1015.5 1015.4 0.0
 
Date/Time
CST
Temp
°C
App
Temp
°C
Dew
Point
°C
Rel
Hum
%
Delta-T
°C
Wind Press
QNH
hPa
Press
MSL
hPa
Rain since
9am
mm
Dir  Spd
km/h
Gust
km/h
Spd
kts
Gust
kts
21/11:30pm 24.0 21.2 20.3 80 2.4 SE 35 43 19 23 1015.7 1015.6 0.0
21/11:00pm 24.0 21.1 20.1 79 2.5 SE 35 44 19 24 1015.8 1015.7 0.0
21/10:30pm 23.9 20.6 20.0 79 2.5 SE 37 44 20 24 1016.0 1015.9 0.0
21/10:00pm 24.0 20.4 20.1 79 2.5 SE 39 46 21 25 1015.9 1015.8 0.0
21/09:30pm 24.0 20.3 19.9 78 2.6 SE 39 48 21 26 1015.6 1015.5 0.0
21/09:00pm 24.1 20.0 20.0 78 2.6 SE 41 46 22 25 1015.4 1015.3 0.0
21/08:30pm 24.2 20.0 19.7 76 2.9 SE 41 48 22 26 1015.2 1015.1 0.0
21/08:00pm 24.1 20.2 19.6 76 2.9 SSE 39 48 21 26 1014.7 1014.6 0.0
21/07:30pm 24.2 20.1 19.9 77 2.8 SE 41 52 22 28 1014.2 1014.1 0.0
21/07:00pm 24.4 20.8 20.1 77 2.8 SE 39 48 21 26 1013.9 1013.8 0.0
21/06:30pm 24.4 20.7 19.9 76 2.9 SE 39 48 21 26 1013.4 1013.3 0.0
21/06:00pm 24.7 21.8 20.0 75 3.0 SE 35 46 19 25 1013.0 1012.9 0.0
21/05:30pm 25.3 21.3 19.4 70 3.8 SE 39 48 21 26 1012.9 1012.8 0.0
21/05:00pm 26.1 22.4 20.0 69 4.0 SE 39 46 21 25 1012.8 1012.7 0.0
21/04:30pm 27.1 24.0 21.2 70 3.9 SSE 39 46 21 25 1012.7 1012.6 0.0
21/04:00pm 26.9 22.8 20.0 66 4.5 SSE 41 50 22 27 1012.8 1012.7 0.0
21/03:30pm 27.7 23.4 20.3 64 4.9 SSE 43 50 23 27 1012.5 1012.4 0.0
21/03:00pm 28.2 24.1 20.0 61 5.4 SSE 41 54 22 29 1012.5 1012.4 0.0
21/02:30pm 28.5 23.9 19.7 59 5.7 SSE 43 52 23 28 1012.7 1012.6 0.0
21/02:00pm 28.9 24.5 20.1 59 5.8 SSE 43 56 23 30 1013.0 1012.9 0.0
21/01:30pm 29.3 25.4 19.6 56 6.3 SSE 39 48 21 26 1013.4 1013.3 0.0
21/01:00pm 28.9 24.2 19.5 57 6.1 SSE 43 54 23 29 1013.7 1013.6 0.0
21/12:30pm 28.9 24.1 19.2 55 6.3 SSE 43 54 23 29 1013.9 1013.8 0.0
21/12:00pm 29.0 24.5 19.9 58 6.0 SE 43 54 23 29 1014.4 1014.3 0.0
21/11:30am 28.5 23.8 19.4 57 5.9 SE 43 52 23 28 1015.0 1014.9 0.0
21/11:00am 28.1 23.2 19.1 58 5.8 SE 43 50 23 27 1015.6 1015.5 0.0
21/10:30am 27.9 22.9 18.9 58 5.8 SE 43 52 23 28 1015.9 1015.8 0.0
21/10:00am 27.7 22.9 19.2 60 5.5 SSE 43 54 23 29 1016.0 1015.9 0.0
21/09:30am 27.0 22.0 18.8 60 5.3 SE 43 54 23 29 1016.1 1016.0 0.0
21/09:00am 26.5 22.8 19.1 64 4.8 SE 37 50 20 27 1016.2 1016.1 0.0
21/08:30am 25.9 21.7 18.8 65 4.5 SE 39 46 21 25 1015.9 1015.8 0.0
21/08:00am 25.1 20.9 19.0 69 3.9 SE 39 48 21 26 1015.6 1015.5 0.0
21/07:30am 24.4 20.2 18.8 71 3.6 SSE 39 48 21 26 1015.4 1015.3 0.0
21/07:00am 23.9 20.5 19.0 74 3.1 SE 35 44 19 24 1015.4 1015.3 0.0
21/06:30am 23.6 19.8 18.9 75 3.0 SE 37 44 20 24 1015.2 1015.1 0.0
21/06:00am 23.4 20.5 19.3 78 2.6 SE 33 43 18 23 1014.9 1014.8 0.0
21/05:30am 23.4 20.8 19.5 79 2.5 SE 32 41 17 22 1014.7 1014.6 0.0
21/05:00am 23.2 20.0 19.4 79 2.4 SSE 35 43 19 23 1014.7 1014.6 0.0
21/04:30am 23.0 20.1 19.2 79 2.4 SSE 33 43 18 23 1014.6 1014.5 0.0
21/04:00am 22.8 19.9 18.8 78 2.5 SSE 32 41 17 22 1014.7 1014.6 0.0
21/03:30am 22.9 20.1 19.1 79 2.4 SSE 32 39 17 21 1014.9 1014.8 0.0
21/03:00am 23.0 20.1 19.2 79 2.4 SSE 33 44 18 24 1015.1 1015.0 0.0
21/02:30am 23.0 20.1 19.2 79 2.4 SSE 33 43 18 23 1015.3 1015.2 0.0
21/02:00am 23.0 19.4 19.4 80 2.3 SSE 37 46 20 25 1015.7 1015.6 0.0
21/01:30am 22.8 19.1 19.2 80 2.3 SSE 37 46 20 25 1015.8 1015.7 0.0
21/01:00am 22.8 19.5 19.2 80 2.3 SSE 35 44 19 24 1015.9 1015.8 0.0
21/12:30am 22.8 19.0 19.0 79 2.4 SSE 37 46 20 25 1016.2 1016.1 0.0
21/12:00am 22.9 19.9 19.1 79 2.4 SSE 33 44 18 24 1016.6 1016.5 0.0
 
Date/Time
CST
Temp
°C
App
Temp
°C
Dew
Point
°C
Rel
Hum
%
Delta-T
°C
Wind Press
QNH
hPa
Press
MSL
hPa
Rain since
9am
mm
Dir  Spd
km/h
Gust
km/h
Spd
kts
Gust
kts
20/11:30pm 22.8 19.0 19.0 79 2.4 SSE 37 48 20 26 1016.5 1016.4 0.0
20/11:00pm 22.9 18.8 19.1 79 2.4 SSE 39 48 21 26 1016.6 1016.5 0.0
20/10:30pm 23.1 19.2 19.5 80 2.3 SSE 39 52 21 28 1016.7 1016.6 0.0
20/10:00pm 23.0 18.3 19.4 80 2.3 SSE 43 56 23 30 1016.6 1016.5 0.0
20/09:30pm 23.1 19.1 19.3 79 2.4 SSE 39 54 21 29 1016.6 1016.5 0.0
20/09:00pm 23.2 19.3 19.6 80 2.3 SSE 39 50 21 27 1016.6 1016.5 0.0
20/08:30pm 23.3 18.7 19.7 80 2.3 SSE 43 54 23 29 1016.4 1016.3 0.0
20/08:00pm 23.2 18.5 19.4 79 2.4 SSE 43 54 23 29 1016.2 1016.1 0.0
20/07:30pm 23.3 19.0 19.5 79 2.4 SSE 41 52 22 28 1015.8 1015.7 0.0
20/07:00pm 23.5 18.9 19.6 79 2.5 SSE 43 57 23 31 1015.4 1015.3 0.0
20/06:30pm 23.5 18.8 19.4 78 2.6 SSE 43 57 23 31 1015.1 1015.0 0.0
20/06:00pm 23.6 18.7 19.1 76 2.9 SSE 43 54 23 29 1014.9 1014.8 0.0
20/05:30pm 24.1 19.3 19.2 74 3.1 SSE 43 54 23 29 1014.5 1014.4 0.0
20/05:11pm 24.7 19.9 19.3 72 3.5 SSE 43 61 23 33 1014.3 1014.2 0.0
20/05:00pm 24.9 19.9 19.3 71 3.6 SSE 44 57 24 31 1014.2 1014.1 0.0
20/04:30pm 25.4 20.3 19.1 68 4.0 SSE 44 59 24 32 1014.0 1013.9 0.0
20/04:00pm 26.3 21.1 19.7 67 4.3 SSE 46 61 25 33 1013.8 1013.7 0.0
20/03:30pm 26.2 20.9 18.6 63 4.8 SSE 44 56 24 30 1014.0 1013.9 0.0

Other formats

Comma delimited format used in spreadsheet applications
http://www.bom.gov.au/fwo/IDD60801/IDD60801.94147.axf

JavaScript Object Notation format (JSON) in row-major order
http://www.bom.gov.au/fwo/IDD60801/IDD60801.94147.json

Data quality

Most of these data are generated automatically and are frequently updated. Quality checks on data are not normally performed. It is possible for incorrect values to appear. Refer to information at About Latest Weather Observations and please check the disclaimer before using these data.